Dillon, SC (29536)

8:41 AM EDT on July 03, 2015 (GMT -0400)
Marion County | | Change Station
CLOSE
Current Station
Airport
Location: Marion,
Elevation: 92 ft
Nearby Weather Stations

Elev 92 ft 34.18 °N, 79.33 °W | Updated 6 minutes ago

Overcast
Overcast
72 °F
Feels Like 72 °F
N
5
Wind Variable Wind from SW

Today
High -- | Low -- °F
--% Chance of Precip.
Yesterday
High -- | Low -- °F
Precip. -- in
6:09 AM 8:33 PM
Full, 97% visible
Pressure 30.00 in
Visibility 5.0 miles
Clouds Overcast 300 ft
Dew Point 72 °F
Humidity 100%
Rainfall 0.00 in
Snow Depth Not available.
UV 1 out of 12
Pollen 2.20 out of 12
Air Quality Not available.
Flu Activity Not available.
METAR KMAO 031235Z AUTO 23004KT 5SM BR OVC003 22/22 A3000 RMK AO2

More Conditions Fewer Conditions

Pressure 30.00 in
Visibility 5.0 miles
Clouds Overcast 300 ft
Dew Point 72 °F
Humidity 100%
Rainfall 0.00 in
Snow Depth Not available.
UV 1 out of 12
Pollen 2.20 out of 12
Air Quality Not available.
Flu Activity Not available.
METAR KMAO 031235Z AUTO 23004KT 5SM BR OVC003 22/22 A3000 RMK AO2

More Conditions Fewer Conditions

10-Day Weather Forecast

×

Almanac

Astronomy

Jul. 03, 2015 Rise Set
Actual Time
Civil Twilight
Nautical Twilight
Astronomical Twilight
Moon
Length of Visible Light
Length of Day
Tomorrow will be .
, % of the Moon is Illuminated

Today's Extremes

State Highs State Lows

Community

WunderPhotos

Upload Photos

1,834,660 photos uploaded!

WunderBlogs® & News

Nearby

Air Quality

  Air Quality AQ Index Pollutant
Not available.

Snow Depth

Station Depth Elevation

Earthquake Activity

City Distance Mag. Time & Date
Minimum magnitude displayed is 2.5.

Coastal Water Temperatures

Place Temperature

Stations

Nearby Weather Stations

Station Location Temp. Windchill Dew Point Humidity Wind Precip. Elev Updated Type